Terminal Aerodrome Forecast
Issued by NWS Albany, NY

Home | Current Version | Previous Version | Text Only | Print | Product List | Glossary On
Versions: 1 2 3 4 5 6 7 8 9 10 11 12 13 14 15 16 17 18 19
000
FTUS41 KALY 160520
TAFPOU
TAF
KPOU 160520Z 1606/1706 23004KT P6SM SCT080 WS020/28030KT
     FM161200 24007KT P6SM BKN070
     FM161800 25010KT P6SM VCSH OVC050
     FM162300 28008KT P6SM SCT050 BKN120
     FM170300 VRB03KT P6SM SCT250=

USA.gov is the U.S. government's official web portal to all federal, state and local government web resources and services.